createdAt,value
2023-04-21T00:01:20.046Z,97526.00
2023-04-21T00:05:21.167Z,97525.00
2023-04-21T00:09:22.234Z,97527.00
2023-04-21T00:13:23.390Z,97523.00
2023-04-21T00:17:24.374Z,97529.00
2023-04-21T00:21:26.038Z,97522.00
2023-04-21T00:25:27.369Z,97535.00
2023-04-21T00:29:28.571Z,97522.00
2023-04-21T00:33:29.618Z,97530.00
2023-04-21T00:37:30.800Z,97519.00
2023-04-21T00:41:34.637Z,97527.00
2023-04-21T00:45:35.612Z,97516.00
2023-04-21T00:49:36.730Z,97518.00
2023-04-21T00:53:37.840Z,97528.00
2023-04-21T00:57:39.100Z,97527.00
2023-04-21T01:01:40.814Z,97522.00
2023-04-21T01:05:41.997Z,97517.00
2023-04-21T01:09:43.026Z,97510.00
2023-04-21T01:13:44.038Z,97517.00
2023-04-21T01:17:45.092Z,97519.00
2023-04-21T01:21:46.520Z,97520.00
2023-04-21T01:25:47.622Z,97511.00
2023-04-21T01:29:51.233Z,97505.00
2023-04-21T01:33:52.226Z,97509.00
2023-04-21T01:37:53.348Z,97502.00
2023-04-21T01:41:57.242Z,97509.00
2023-04-21T01:45:58.274Z,97501.00
2023-04-21T01:49:59.522Z,97504.00
2023-04-21T01:54:00.953Z,97512.00
2023-04-21T01:58:02.039Z,97501.00
2023-04-21T02:02:03.242Z,97502.00
2023-04-21T02:06:05.435Z,97513.00
2023-04-21T02:10:06.985Z,97499.00
2023-04-21T02:14:07.988Z,97499.00
2023-04-21T02:18:09.759Z,97500.00
2023-04-21T02:22:12.193Z,97513.00
2023-04-21T02:26:13.233Z,97500.00
2023-04-21T02:30:14.331Z,97504.00
2023-04-21T02:34:15.360Z,97502.00
2023-04-21T02:38:16.449Z,97514.00
2023-04-21T02:42:17.451Z,97515.00
2023-04-21T02:46:18.528Z,97512.00
2023-04-21T02:50:19.797Z,97523.00
2023-04-21T02:54:20.872Z,97513.00
2023-04-21T02:58:22.089Z,97511.00
2023-04-21T03:02:23.103Z,97511.00
2023-04-21T03:06:24.089Z,97516.00
2023-04-21T03:10:25.301Z,97519.00
2023-04-21T03:14:26.352Z,97513.00
2023-04-21T03:18:27.527Z,97518.00
2023-04-21T03:22:28.636Z,97537.00
2023-04-21T03:26:29.812Z,97523.00
2023-04-21T03:30:30.970Z,97513.00
2023-04-21T03:34:31.934Z,97511.00
2023-04-21T03:38:32.920Z,97511.00
2023-04-21T03:42:34.837Z,97517.00
2023-04-21T03:46:35.854Z,97532.00
2023-04-21T03:50:37.841Z,97526.00
2023-04-21T03:54:38.832Z,97523.00
2023-04-21T03:58:39.922Z,97515.00
2023-04-21T04:02:41.215Z,97503.00
2023-04-21T04:06:42.408Z,97519.00
2023-04-21T04:10:43.413Z,97509.00
2023-04-21T04:14:44.379Z,97503.00
2023-04-21T04:18:45.377Z,97514.00
2023-04-21T04:22:46.630Z,97515.00
2023-04-21T04:26:47.617Z,97517.00
2023-04-21T04:30:48.676Z,97516.00
2023-04-21T04:34:51.560Z,97451.00
2023-04-21T04:38:52.578Z,97514.00
2023-04-21T04:42:54.177Z,97510.00
2023-04-21T04:46:55.954Z,97515.00
2023-04-21T04:50:57.082Z,97517.00
2023-04-21T04:54:58.035Z,97517.00
2023-04-21T04:58:58.987Z,97513.00
2023-04-21T05:03:00.241Z,97522.00
2023-04-21T05:07:01.430Z,97515.00
2023-04-21T05:11:02.489Z,97511.00
2023-04-21T05:15:04.673Z,97514.00
2023-04-21T05:19:05.772Z,97522.00
2023-04-21T05:23:06.937Z,97521.00
2023-04-21T05:27:07.868Z,97531.00
2023-04-21T05:31:08.743Z,97533.00
2023-04-21T05:35:10.116Z,97532.00
2023-04-21T05:39:11.227Z,97532.00
2023-04-21T05:43:12.224Z,97531.00
2023-04-21T05:47:13.312Z,97519.00
2023-04-21T05:51:15.354Z,97519.00
2023-04-21T05:55:16.375Z,97533.00
2023-04-21T05:59:17.516Z,97536.00
2023-04-21T06:03:18.506Z,97533.00
2023-04-21T06:07:20.085Z,97538.00
2023-04-21T06:11:21.700Z,97528.00
2023-04-21T06:15:22.637Z,97526.00
2023-04-21T06:19:23.860Z,97532.00
2023-04-21T06:23:24.817Z,97537.00
2023-04-21T06:27:25.925Z,97532.00
2023-04-21T06:31:27.331Z,97529.00
2023-04-21T06:35:28.252Z,97535.00
2023-04-21T06:39:29.937Z,97529.00
2023-04-21T06:43:31.077Z,97520.00
2023-04-21T06:47:32.316Z,97518.00
2023-04-21T06:51:33.325Z,97527.00
2023-04-21T06:55:34.288Z,97524.00
2023-04-21T06:59:35.282Z,97528.00
2023-04-21T07:03:36.515Z,97519.00
2023-04-21T07:07:37.702Z,97525.00
2023-04-21T07:11:38.807Z,97529.00
2023-04-21T07:15:40.532Z,97525.00
2023-04-21T07:19:41.590Z,97539.00
2023-04-21T07:23:42.664Z,97532.00
2023-04-21T07:27:43.767Z,97532.00
2023-04-21T07:31:46.667Z,97533.00
2023-04-21T07:35:47.700Z,97541.00
2023-04-21T07:39:48.688Z,97542.00
2023-04-21T07:43:50.445Z,97540.00
2023-04-21T07:47:52.664Z,97538.00
2023-04-21T07:51:53.636Z,97542.00
2023-04-21T07:55:57.485Z,97546.00
2023-04-21T07:59:58.787Z,97543.00
2023-04-21T08:03:59.910Z,97544.00
2023-04-21T08:08:01.442Z,97540.00
2023-04-21T08:12:02.652Z,97533.00
2023-04-21T08:16:04.240Z,97540.00
2023-04-21T08:20:06.381Z,97533.00
2023-04-21T08:24:07.683Z,97525.00
2023-04-21T08:28:08.821Z,97517.00
2023-04-21T08:32:10.086Z,97520.00
2023-04-21T08:36:21.872Z,97518.00
2023-04-21T08:40:14.263Z,97515.00
2023-04-21T08:44:15.241Z,97532.00
2023-04-21T08:48:19.654Z,97529.00
2023-04-21T08:52:20.818Z,97521.00
2023-04-21T08:56:26.671Z,97519.00
2023-04-21T09:00:28.035Z,97513.00
2023-04-21T09:04:30.222Z,97515.00
2023-04-21T09:08:32.418Z,97515.00
2023-04-21T09:12:33.539Z,97531.00
2023-04-21T09:16:34.898Z,97528.00
2023-04-21T09:20:36.224Z,97533.00
2023-04-21T09:24:41.171Z,97530.00
2023-04-21T09:28:47.732Z,97527.00
2023-04-21T09:32:49.265Z,97521.00
2023-04-21T09:37:02.431Z,97527.00
2023-04-21T09:41:03.686Z,97524.00
2023-04-21T09:49:10.150Z,97530.00
2023-04-21T09:53:16.552Z,97533.00
2023-04-21T09:57:23.381Z,97529.00
2023-04-21T10:01:27.112Z,97538.00
2023-04-21T10:05:28.535Z,97530.00
2023-04-21T10:09:45.373Z,97542.00
2023-04-21T10:13:46.672Z,97527.00
2023-04-21T10:17:49.690Z,97511.00
2023-04-21T10:21:50.835Z,97525.00
2023-04-21T10:25:52.089Z,97520.00
2023-04-21T10:29:56.993Z,97517.00
2023-04-21T10:34:11.938Z,97509.00
2023-04-21T10:38:16.845Z,97500.00
2023-04-21T10:42:29.456Z,97496.00
2023-04-21T10:46:36.307Z,97496.00
2023-04-21T10:50:39.568Z,97493.00
2023-04-21T10:54:47.297Z,97484.00
2023-04-21T10:58:49.662Z,97483.00
2023-04-21T11:02:58.830Z,97481.00
2023-04-21T11:07:09.904Z,97485.00
2023-04-21T11:11:14.825Z,97480.00
2023-04-21T11:15:16.218Z,97488.00
2023-04-21T11:19:17.771Z,97486.00
2023-04-21T11:23:18.816Z,97484.00
2023-04-21T11:27:21.796Z,97480.00
2023-04-21T11:31:25.119Z,97477.00
2023-04-21T11:35:26.300Z,97460.00
2023-04-21T11:39:27.329Z,97450.00
2023-04-21T11:43:28.487Z,97452.00
2023-04-21T11:47:29.880Z,97451.00
2023-04-21T11:51:43.756Z,97443.00
2023-04-21T11:55:47.734Z,97454.00
2023-04-21T11:59:48.823Z,97455.00
2023-04-21T12:03:56.425Z,97440.00
2023-04-21T12:07:57.823Z,97442.00
2023-04-21T12:11:59.350Z,97440.00
2023-04-21T12:16:02.813Z,97431.00
2023-04-21T12:20:09.142Z,97440.00
2023-04-21T12:24:10.160Z,97422.00
2023-04-21T12:28:11.298Z,97434.00
2023-04-21T12:32:12.503Z,97437.00
2023-04-21T12:36:13.780Z,97421.00
2023-04-21T12:40:15.250Z,97418.00
2023-04-21T12:44:16.432Z,97425.00
2023-04-21T12:48:19.357Z,97418.00
2023-04-21T12:52:20.636Z,97426.00
2023-04-21T12:56:21.622Z,97418.00
2023-04-21T13:00:22.637Z,97410.00
2023-04-21T13:04:23.873Z,97406.00
2023-04-21T13:08:25.693Z,97434.00
2023-04-21T13:12:26.994Z,97402.00
2023-04-21T13:16:30.180Z,97412.00
2023-04-21T13:20:30.985Z,97405.00
2023-04-21T13:24:32.400Z,97388.00
2023-04-21T13:28:33.480Z,97395.00
2023-04-21T13:32:34.739Z,97378.00
2023-04-21T13:36:35.856Z,97375.00
2023-04-21T13:40:39.580Z,97385.00
2023-04-21T13:44:40.511Z,97367.00
2023-04-21T13:48:41.753Z,97375.00
2023-04-21T13:52:42.722Z,97362.00
2023-04-21T13:56:43.794Z,97358.00
2023-04-21T14:00:44.896Z,97357.00
2023-04-21T14:04:46.485Z,97353.00
2023-04-21T14:08:47.753Z,97345.00
2023-04-21T14:12:48.854Z,97337.00
2023-04-21T14:16:50.197Z,97329.00
2023-04-21T14:20:51.398Z,97326.00
2023-04-21T14:24:52.354Z,97301.00
2023-04-21T14:28:53.474Z,97302.00
2023-04-21T14:32:55.091Z,97291.00
2023-04-21T14:36:56.255Z,97290.00
2023-04-21T14:40:57.224Z,97288.00
2023-04-21T14:44:58.236Z,97293.00
2023-04-21T14:48:59.509Z,97283.00
2023-04-21T14:53:00.607Z,97268.00
2023-04-21T14:57:17.966Z,97270.00
2023-04-21T15:01:05.158Z,97268.00
2023-04-21T15:05:08.105Z,97263.00
2023-04-21T15:09:09.247Z,97262.00
2023-04-21T15:13:11.437Z,97259.00
2023-04-21T15:17:12.696Z,97258.00
2023-04-21T15:21:13.882Z,97261.00
2023-04-21T15:25:14.836Z,97252.00
2023-04-21T15:29:16.013Z,97238.00
2023-04-21T15:33:17.223Z,97232.00
2023-04-21T15:37:19.424Z,97225.00
2023-04-21T15:41:20.600Z,97220.00
2023-04-21T15:45:21.669Z,97146.00
2023-04-21T15:49:37.029Z,97219.00
2023-04-21T15:53:26.364Z,97214.00
2023-04-21T15:57:27.606Z,97223.00
2023-04-21T16:01:29.135Z,97221.00
2023-04-21T16:05:30.681Z,97216.00
2023-04-21T16:09:31.844Z,97200.00
2023-04-21T16:13:33.642Z,97196.00
2023-04-21T16:17:36.061Z,97185.00
2023-04-21T16:21:39.282Z,97183.00
2023-04-21T16:25:41.237Z,97182.00
2023-04-21T16:29:42.611Z,97170.00
2023-04-21T16:33:43.490Z,97162.00
2023-04-21T16:37:44.842Z,97159.00
2023-04-21T16:41:45.897Z,97165.00
2023-04-21T16:45:46.998Z,97167.00
2023-04-21T16:49:47.954Z,97166.00
2023-04-21T16:53:49.161Z,97161.00
2023-04-21T16:57:50.260Z,97158.00
2023-04-21T17:01:51.273Z,97167.00
2023-04-21T17:05:52.803Z,97165.00
2023-04-21T17:09:53.763Z,97166.00
2023-04-21T17:13:54.905Z,97166.00
2023-04-21T17:17:56.184Z,97162.00
2023-04-21T17:21:57.363Z,97084.00
2023-04-21T17:25:58.603Z,97176.00
2023-04-21T17:29:59.897Z,97182.00
2023-04-21T17:34:00.997Z,97180.00
2023-04-21T17:38:02.477Z,97172.00
2023-04-21T17:42:04.352Z,97177.00
2023-04-21T17:46:06.849Z,97180.00
2023-04-21T17:50:10.924Z,97192.00
2023-04-21T17:54:11.914Z,97195.00
2023-04-21T17:58:13.016Z,97189.00
2023-04-21T18:02:14.391Z,97188.00
2023-04-21T18:06:15.786Z,97180.00
2023-04-21T18:10:16.771Z,97171.00
2023-04-21T18:14:17.834Z,97172.00
2023-04-21T18:18:18.825Z,97180.00
2023-04-21T18:22:19.943Z,97175.00
2023-04-21T18:26:20.982Z,97187.00
2023-04-21T18:30:22.304Z,97207.00
2023-04-21T18:34:23.602Z,97218.00
2023-04-21T18:38:24.604Z,97215.00
2023-04-21T18:42:26.165Z,97209.00
2023-04-21T18:46:27.300Z,97206.00
2023-04-21T18:50:28.456Z,97196.00
2023-04-21T18:54:29.824Z,97194.00
2023-04-21T18:58:30.801Z,97206.00
2023-04-21T19:02:32.507Z,97203.00
2023-04-21T19:06:35.211Z,97217.00
2023-04-21T19:10:37.386Z,97219.00
2023-04-21T19:14:46.671Z,97202.00
2023-04-21T19:18:42.087Z,97215.00
2023-04-21T19:22:43.887Z,97210.00
2023-04-21T19:26:45.283Z,97202.00
2023-04-21T19:30:47.738Z,97216.00
2023-04-21T19:34:49.065Z,97201.00
2023-04-21T19:38:50.456Z,97202.00
2023-04-21T19:42:51.583Z,97195.00
2023-04-21T19:46:52.995Z,97201.00
2023-04-21T19:50:54.169Z,97110.00
2023-04-21T19:54:55.707Z,97203.00
2023-04-21T19:58:58.697Z,97210.00
2023-04-21T20:03:00.012Z,97204.00
2023-04-21T20:07:01.653Z,97207.00
2023-04-21T20:11:02.616Z,97207.00
2023-04-21T20:15:05.008Z,97208.00
2023-04-21T20:19:06.477Z,97200.00
2023-04-21T20:23:07.612Z,97206.00
2023-04-21T20:27:08.986Z,97205.00
2023-04-21T20:31:10.194Z,97192.00
2023-04-21T20:35:14.825Z,97204.00
2023-04-21T20:39:17.036Z,97200.00
2023-04-21T20:43:18.252Z,97211.00
2023-04-21T20:47:19.427Z,97201.00
2023-04-21T20:51:20.435Z,97197.00
2023-04-21T20:55:21.434Z,97206.00
2023-04-21T20:59:22.566Z,97212.00
2023-04-21T21:03:23.921Z,97218.00
2023-04-21T21:07:25.158Z,97240.00
2023-04-21T21:11:26.500Z,97234.00
2023-04-21T21:15:29.919Z,97217.00
2023-04-21T21:19:30.986Z,97212.00
2023-04-21T21:23:32.306Z,97209.00
2023-04-21T21:27:33.482Z,97198.00
2023-04-21T21:31:35.212Z,97198.00
2023-04-21T21:35:36.393Z,97195.00
2023-04-21T21:39:37.791Z,97201.00
2023-04-21T21:43:39.183Z,97204.00
2023-04-21T21:47:43.874Z,97202.00
2023-04-21T21:51:43.346Z,97208.00
2023-04-21T21:55:44.645Z,97212.00
2023-04-21T21:59:46.526Z,97202.00
2023-04-21T22:03:47.643Z,97201.00
2023-04-21T22:07:48.909Z,97206.00
2023-04-21T22:11:52.776Z,97190.00
2023-04-21T22:15:53.921Z,97201.00
2023-04-21T22:19:55.377Z,97203.00
2023-04-21T22:23:56.604Z,97197.00
2023-04-21T22:27:57.908Z,97195.00
2023-04-21T22:31:59.386Z,97206.00
2023-04-21T22:36:02.852Z,97212.00
2023-04-21T22:40:05.413Z,97209.00
2023-04-21T22:44:06.517Z,97195.00
2023-04-21T22:48:08.890Z,97204.00
2023-04-21T22:52:10.440Z,97199.00
2023-04-21T22:56:11.495Z,97192.00
2023-04-21T23:00:14.923Z,97200.00
2023-04-21T23:04:15.937Z,97188.00
2023-04-21T23:08:16.911Z,97192.00
2023-04-21T23:12:18.096Z,97189.00
2023-04-21T23:16:19.222Z,97196.00
2023-04-21T23:20:20.566Z,97204.00
2023-04-21T23:24:21.652Z,97210.00
2023-04-21T23:28:23.610Z,97200.00
2023-04-21T23:32:24.854Z,97208.00
2023-04-21T23:36:26.600Z,97204.00
2023-04-21T23:40:27.689Z,97208.00
2023-04-21T23:44:28.799Z,97206.00
2023-04-21T23:48:30.274Z,97199.00
2023-04-21T23:52:31.473Z,97194.00
2023-04-21T23:56:32.747Z,97195.00
